createdAt,value
2022-10-09T00:00:11.884Z,7.05
2022-10-09T00:02:40.016Z,6.79
2022-10-09T00:05:08.480Z,6.84
2022-10-09T00:07:37.599Z,6.28
2022-10-09T00:10:06.245Z,7.23
2022-10-09T00:12:35.990Z,7.15
2022-10-09T00:15:03.794Z,6.58
2022-10-09T00:17:31.543Z,7.27
2022-10-09T00:19:59.265Z,7.20
2022-10-09T00:22:26.980Z,6.24
2022-10-09T00:24:56.053Z,6.83
2022-10-09T00:27:24.398Z,6.63
2022-10-09T00:29:52.734Z,6.82
2022-10-09T00:32:20.428Z,6.91
2022-10-09T00:34:48.140Z,6.71
2022-10-09T00:37:16.036Z,6.82
2022-10-09T00:39:43.731Z,6.79
2022-10-09T00:42:13.619Z,5.89
2022-10-09T00:44:49.820Z,6.51
2022-10-09T00:47:21.830Z,6.77
2022-10-09T00:49:50.787Z,6.54
2022-10-09T00:52:18.790Z,6.48
2022-10-09T00:54:46.487Z,6.69
2022-10-09T00:57:17.899Z,6.68
2022-10-09T00:59:46.178Z,5.86
2022-10-09T01:02:13.883Z,6.57
2022-10-09T01:04:41.612Z,6.54
2022-10-09T01:07:24.810Z,6.27
2022-10-09T01:09:58.015Z,6.55
2022-10-09T01:12:34.935Z,6.13
2022-10-09T01:15:10.473Z,6.33
2022-10-09T01:17:43.920Z,6.37
2022-10-09T01:20:30.826Z,6.22
2022-10-09T01:23:12.990Z,6.55
2022-10-09T01:25:51.538Z,5.78
2022-10-09T01:28:23.429Z,5.43
2022-10-09T01:30:51.785Z,6.34
2022-10-09T01:33:19.814Z,6.35
2022-10-09T01:35:48.326Z,6.23
2022-10-09T01:38:17.735Z,6.02
2022-10-09T01:40:45.878Z,6.50
2022-10-09T01:43:13.744Z,5.84
2022-10-09T01:45:44.887Z,5.96
2022-10-09T01:48:17.532Z,6.31
2022-10-09T01:50:47.351Z,6.48
2022-10-09T01:53:22.874Z,6.17
2022-10-09T01:55:55.672Z,6.31
2022-10-09T01:58:29.503Z,6.38
2022-10-09T02:01:03.519Z,6.13
2022-10-09T02:03:33.070Z,6.06
2022-10-09T02:06:02.056Z,6.34
2022-10-09T02:08:33.699Z,5.78
2022-10-09T02:11:03.069Z,6.23
2022-10-09T02:13:33.277Z,6.04
2022-10-09T02:16:11.606Z,6.19
2022-10-09T02:18:43.608Z,5.78
2022-10-09T02:21:15.966Z,6.18
2022-10-09T02:23:46.224Z,6.10
2022-10-09T02:26:14.627Z,6.09
2022-10-09T02:28:45.801Z,6.11
2022-10-09T02:31:21.125Z,6.00
2022-10-09T02:33:56.499Z,6.04
2022-10-09T02:36:24.661Z,5.66
2022-10-09T02:38:52.474Z,5.94
2022-10-09T02:41:23.317Z,5.81
2022-10-09T02:43:51.509Z,5.99
2022-10-09T02:46:20.743Z,5.63
2022-10-09T02:48:48.697Z,5.13
2022-10-09T02:51:16.489Z,5.96
2022-10-09T02:53:45.055Z,5.82
2022-10-09T02:56:12.968Z,5.88
2022-10-09T02:58:41.114Z,5.91
2022-10-09T03:01:09.615Z,5.87
2022-10-09T03:03:38.797Z,5.91
2022-10-09T03:06:09.474Z,5.69
2022-10-09T03:08:37.757Z,5.79
2022-10-09T03:11:05.695Z,5.78
2022-10-09T03:13:33.436Z,5.12
2022-10-09T03:16:05.065Z,5.74
2022-10-09T03:18:33.277Z,5.28
2022-10-09T03:21:02.370Z,5.40
2022-10-09T03:23:30.083Z,5.38
2022-10-09T03:25:58.329Z,5.53
2022-10-09T03:28:26.857Z,5.82
2022-10-09T03:30:55.707Z,5.78
2022-10-09T03:33:23.896Z,5.77
2022-10-09T03:35:51.593Z,5.13
2022-10-09T03:38:20.939Z,5.74
2022-10-09T03:40:48.665Z,4.88
2022-10-09T03:43:16.389Z,5.43
2022-10-09T03:45:44.624Z,5.60
2022-10-09T03:48:13.910Z,5.66
2022-10-09T03:50:42.396Z,5.65
2022-10-09T03:53:11.567Z,5.62
2022-10-09T03:55:41.027Z,5.46
2022-10-09T03:58:10.673Z,5.61
2022-10-09T04:00:38.463Z,4.72
2022-10-09T04:03:06.244Z,5.60
2022-10-09T04:05:35.815Z,5.16
2022-10-09T04:08:03.505Z,5.39
2022-10-09T04:10:31.280Z,4.72
2022-10-09T04:13:00.359Z,5.41
2022-10-09T04:15:28.052Z,5.54
2022-10-09T04:17:55.935Z,5.44
2022-10-09T04:20:23.657Z,5.11
2022-10-09T04:22:51.563Z,5.20
2022-10-09T04:25:19.440Z,5.55
2022-10-09T04:27:47.172Z,5.56
2022-10-09T04:30:16.423Z,5.58
2022-10-09T04:32:44.129Z,5.55
2022-10-09T04:35:11.851Z,5.50
2022-10-09T04:37:40.758Z,5.48
2022-10-09T04:40:08.998Z,4.70
2022-10-09T04:42:36.673Z,4.94
2022-10-09T04:45:05.239Z,4.62
2022-10-09T04:47:34.814Z,5.42
2022-10-09T04:50:02.816Z,4.61
2022-10-09T04:52:30.543Z,5.24
2022-10-09T04:54:58.285Z,5.05
2022-10-09T04:57:25.998Z,5.17
2022-10-09T04:59:53.730Z,5.47
2022-10-09T05:02:21.528Z,4.79
2022-10-09T05:04:50.700Z,5.39
2022-10-09T05:07:18.403Z,5.38
2022-10-09T05:09:46.079Z,5.38
2022-10-09T05:12:13.785Z,5.46
2022-10-09T05:14:41.485Z,5.38
2022-10-09T05:17:14.170Z,4.97
2022-10-09T05:19:42.579Z,5.36
2022-10-09T05:22:11.601Z,5.40
2022-10-09T05:24:39.331Z,5.35
2022-10-09T05:27:07.024Z,5.40
2022-10-09T05:29:34.764Z,5.34
2022-10-09T05:32:02.515Z,5.42
2022-10-09T05:34:30.275Z,5.45
2022-10-09T05:36:57.999Z,5.35
2022-10-09T05:39:27.099Z,4.67
2022-10-09T05:41:54.808Z,5.45
2022-10-09T05:44:22.588Z,4.86
2022-10-09T05:46:50.330Z,5.17
2022-10-09T05:49:18.015Z,5.27
2022-10-09T05:51:45.822Z,5.77
2022-10-09T05:54:15.789Z,5.63
2022-10-09T05:56:46.182Z,5.65
2022-10-09T05:59:15.522Z,5.21
2022-10-09T06:01:45.230Z,5.71
2022-10-09T06:04:15.201Z,5.83
2022-10-09T06:06:43.224Z,5.82
2022-10-09T06:09:12.692Z,5.61
2022-10-09T06:11:41.578Z,5.83
2022-10-09T06:14:12.653Z,5.93
2022-10-09T06:16:42.643Z,5.07
2022-10-09T06:19:13.170Z,6.02
2022-10-09T06:21:41.652Z,5.70
2022-10-09T06:24:09.699Z,5.84
2022-10-09T06:26:37.345Z,5.90
2022-10-09T06:29:05.029Z,6.24
2022-10-09T06:31:34.366Z,6.18
2022-10-09T06:34:03.164Z,6.14
2022-10-09T06:36:33.374Z,5.49
2022-10-09T06:39:02.191Z,6.35
2022-10-09T06:41:30.766Z,6.32
2022-10-09T06:43:59.979Z,6.34
2022-10-09T06:46:30.064Z,6.30
2022-10-09T06:48:59.965Z,5.69
2022-10-09T06:51:28.950Z,6.48
2022-10-09T06:53:59.510Z,6.46
2022-10-09T06:56:29.413Z,6.38
2022-10-09T06:58:57.664Z,6.59
2022-10-09T07:01:27.749Z,5.93
2022-10-09T07:03:57.439Z,6.71
2022-10-09T07:06:28.052Z,6.52
2022-10-09T07:08:59.703Z,6.58
2022-10-09T07:11:29.385Z,6.88
2022-10-09T07:13:58.915Z,6.74
2022-10-09T07:16:29.544Z,7.01
2022-10-09T07:18:58.042Z,6.74
2022-10-09T07:21:27.252Z,6.91
2022-10-09T07:23:55.042Z,7.02
2022-10-09T07:26:26.082Z,7.17
2022-10-09T07:28:54.741Z,7.20
2022-10-09T07:31:24.702Z,7.28
2022-10-09T07:33:54.046Z,7.00
2022-10-09T07:36:21.757Z,7.36
2022-10-09T07:38:52.687Z,7.29
2022-10-09T07:41:21.190Z,7.29
2022-10-09T07:43:49.220Z,7.60
2022-10-09T07:46:18.840Z,7.50
2022-10-09T07:48:47.189Z,7.53
2022-10-09T07:51:17.097Z,7.72
2022-10-09T07:53:45.200Z,7.79
2022-10-09T07:56:17.249Z,7.46
2022-10-09T07:58:50.185Z,7.54
2022-10-09T08:01:20.349Z,7.69
2022-10-09T08:03:49.157Z,7.97
2022-10-09T08:06:17.451Z,7.70
2022-10-09T08:08:45.298Z,7.42
2022-10-09T08:11:16.897Z,8.09
2022-10-09T08:13:46.539Z,8.18
2022-10-09T08:16:17.128Z,8.09
2022-10-09T08:18:44.854Z,8.26
2022-10-09T08:21:14.184Z,8.31
2022-10-09T08:23:42.395Z,8.41
2022-10-09T08:26:15.984Z,7.69
2022-10-09T08:28:44.331Z,8.28
2022-10-09T08:31:13.309Z,8.49
2022-10-09T08:33:42.516Z,8.31
2022-10-09T08:36:12.487Z,8.43
2022-10-09T08:38:48.360Z,8.54
2022-10-09T08:41:30.139Z,8.68
2022-10-09T08:44:03.731Z,8.13
2022-10-09T08:46:43.546Z,8.80
2022-10-09T08:49:21.513Z,8.85
2022-10-09T08:51:49.743Z,8.35
2022-10-09T08:54:27.471Z,9.06
2022-10-09T08:56:56.569Z,9.12
2022-10-09T08:59:24.244Z,8.58
2022-10-09T09:02:03.660Z,9.21
2022-10-09T09:04:56.394Z,9.36
2022-10-09T09:07:33.953Z,9.41
2022-10-09T09:10:15.168Z,9.25
2022-10-09T09:12:50.235Z,9.27
2022-10-09T09:15:29.374Z,9.51
2022-10-09T09:18:08.048Z,9.18
2022-10-09T09:20:48.522Z,9.34
2022-10-09T09:23:17.381Z,9.62
2022-10-09T09:25:46.690Z,9.71
2022-10-09T09:28:21.207Z,9.84
2022-10-09T09:30:52.855Z,9.77
2022-10-09T09:33:26.503Z,9.16
2022-10-09T09:36:07.687Z,10.10
2022-10-09T09:38:54.186Z,10.14
2022-10-09T09:41:29.041Z,10.27
2022-10-09T09:43:58.388Z,10.27
2022-10-09T09:46:33.253Z,10.23
2022-10-09T09:49:03.001Z,10.35
2022-10-09T09:51:34.174Z,9.30
2022-10-09T09:54:07.173Z,10.51
2022-10-09T09:56:59.810Z,10.43
2022-10-09T09:59:32.314Z,10.49
2022-10-09T10:02:09.783Z,9.92
2022-10-09T10:04:42.417Z,10.48
2022-10-09T10:07:10.924Z,10.38
2022-10-09T10:09:38.592Z,9.93
2022-10-09T10:12:09.136Z,10.55
2022-10-09T10:14:38.246Z,10.65
2022-10-09T10:17:06.111Z,10.71
2022-10-09T10:19:35.497Z,10.71
2022-10-09T10:22:07.329Z,10.84
2022-10-09T10:24:41.566Z,9.97
2022-10-09T10:27:15.084Z,10.58
2022-10-09T10:29:46.396Z,11.07
2022-10-09T10:32:19.938Z,11.00
2022-10-09T10:34:52.786Z,10.84
2022-10-09T10:37:30.316Z,10.80
2022-10-09T10:40:02.693Z,10.54
2022-10-09T10:42:37.637Z,10.97
2022-10-09T10:45:17.003Z,11.08
2022-10-09T10:47:50.232Z,10.73
2022-10-09T10:50:18.315Z,11.07
2022-10-09T10:53:01.645Z,11.25
2022-10-09T10:55:40.861Z,10.86
2022-10-09T10:58:23.547Z,11.36
2022-10-09T11:01:07.512Z,11.24
2022-10-09T11:03:51.903Z,11.29
2022-10-09T11:06:24.749Z,11.33
2022-10-09T11:09:02.324Z,10.75
2022-10-09T11:11:39.154Z,11.34
2022-10-09T11:14:20.395Z,11.16
2022-10-09T11:17:01.598Z,11.02
2022-10-09T11:19:57.093Z,11.35
2022-10-09T11:22:40.650Z,11.27
2022-10-09T11:25:27.935Z,10.82
2022-10-09T11:28:03.173Z,10.91
2022-10-09T11:30:37.708Z,10.69
2022-10-09T11:33:24.880Z,11.20
2022-10-09T11:35:59.797Z,10.68
2022-10-09T11:38:30.033Z,11.54
2022-10-09T11:41:01.534Z,11.34
2022-10-09T11:43:54.477Z,11.58
2022-10-09T11:46:33.145Z,11.64
2022-10-09T11:49:11.444Z,11.42
2022-10-09T11:51:46.996Z,11.42
2022-10-09T11:54:17.634Z,11.80
2022-10-09T11:56:55.152Z,11.84
2022-10-09T11:59:26.077Z,11.44
2022-10-09T12:01:53.954Z,11.41
2022-10-09T12:04:43.535Z,11.95
2022-10-09T12:07:15.592Z,11.61
2022-10-09T12:09:45.555Z,11.87
2022-10-09T12:12:23.439Z,11.79
2022-10-09T12:14:52.727Z,11.56
2022-10-09T12:17:35.305Z,11.80
2022-10-09T12:20:08.531Z,11.94
2022-10-09T12:22:41.539Z,12.04
2022-10-09T12:25:18.065Z,11.99
2022-10-09T12:27:46.352Z,11.98
2022-10-09T12:30:21.910Z,11.79
2022-10-09T12:32:56.146Z,11.99
2022-10-09T12:35:29.867Z,12.02
2022-10-09T12:37:58.040Z,11.01
2022-10-09T12:40:28.776Z,11.37
2022-10-09T12:43:01.247Z,11.52
2022-10-09T12:45:34.986Z,11.87
2022-10-09T12:48:13.423Z,12.13
2022-10-09T12:50:42.965Z,12.04
2022-10-09T12:53:15.291Z,11.16
2022-10-09T12:55:45.658Z,11.67
2022-10-09T12:58:17.259Z,12.02
2022-10-09T13:00:46.825Z,12.06
2022-10-09T13:03:35.274Z,11.64
2022-10-09T13:06:06.801Z,11.66
2022-10-09T13:08:37.474Z,11.86
2022-10-09T13:11:13.199Z,11.19
2022-10-09T13:13:41.645Z,11.41
2022-10-09T13:16:10.875Z,11.96
2022-10-09T13:18:39.465Z,11.41
2022-10-09T13:21:24.515Z,11.60
2022-10-09T13:23:52.313Z,11.84
2022-10-09T13:26:25.247Z,11.96
2022-10-09T13:28:53.483Z,12.13
2022-10-09T13:31:21.502Z,12.10
2022-10-09T13:33:49.584Z,12.10
2022-10-09T13:36:19.876Z,12.08
2022-10-09T13:38:48.965Z,11.93
2022-10-09T13:41:20.339Z,11.82
2022-10-09T13:43:48.852Z,11.64
2022-10-09T13:46:17.191Z,12.12
2022-10-09T13:48:44.927Z,11.73
2022-10-09T13:51:12.889Z,11.75
2022-10-09T13:53:42.040Z,10.93
2022-10-09T13:56:09.788Z,11.61
2022-10-09T13:58:37.738Z,11.93
2022-10-09T14:01:05.765Z,11.82
2022-10-09T14:03:33.520Z,11.09
2022-10-09T14:06:03.591Z,12.01
2022-10-09T14:08:31.767Z,10.96
2022-10-09T14:11:02.153Z,11.66
2022-10-09T14:13:30.082Z,11.94
2022-10-09T14:15:57.823Z,11.98
2022-10-09T14:18:26.032Z,12.02
2022-10-09T14:20:53.759Z,11.27
2022-10-09T14:23:21.903Z,11.23
2022-10-09T14:25:49.604Z,11.89
2022-10-09T14:28:18.816Z,11.99
2022-10-09T14:30:46.535Z,11.70
2022-10-09T14:33:14.378Z,11.34
2022-10-09T14:35:42.234Z,11.55
2022-10-09T14:38:09.933Z,11.66
2022-10-09T14:40:43.049Z,11.79
2022-10-09T14:43:11.031Z,11.75
2022-10-09T14:45:40.200Z,11.03
2022-10-09T14:48:08.086Z,10.92
2022-10-09T14:50:37.110Z,11.39
2022-10-09T14:53:06.016Z,11.49
2022-10-09T14:55:35.949Z,11.36
2022-10-09T14:58:03.708Z,11.07
2022-10-09T15:00:31.413Z,11.74
2022-10-09T15:03:00.695Z,11.33
2022-10-09T15:05:28.380Z,11.59
2022-10-09T15:07:56.035Z,11.76
2022-10-09T15:10:23.759Z,11.40
2022-10-09T15:12:51.433Z,11.63
2022-10-09T15:15:19.231Z,11.68
2022-10-09T15:17:47.209Z,11.60
2022-10-09T15:20:16.679Z,11.68
2022-10-09T15:22:44.784Z,11.36
2022-10-09T15:25:12.555Z,11.21
2022-10-09T15:27:40.308Z,10.99
2022-10-09T15:30:09.359Z,11.55
2022-10-09T15:32:37.139Z,11.04
2022-10-09T15:35:05.380Z,11.32
2022-10-09T15:37:34.758Z,11.00
2022-10-09T15:40:02.519Z,11.45
2022-10-09T15:42:30.377Z,11.08
2022-10-09T15:44:58.107Z,10.89
2022-10-09T15:47:49.576Z,11.48
2022-10-09T15:50:13.568Z,11.31
2022-10-09T15:52:42.640Z,11.38
2022-10-09T15:55:10.493Z,10.81
2022-10-09T15:57:38.270Z,11.01
2022-10-09T16:00:07.482Z,10.94
2022-10-09T16:02:35.250Z,11.34
2022-10-09T16:05:03.032Z,11.11
2022-10-09T16:07:32.297Z,11.35
2022-10-09T16:10:01.424Z,11.36
2022-10-09T16:12:31.145Z,10.48
2022-10-09T16:15:00.359Z,10.61
2022-10-09T16:17:28.390Z,10.89
2022-10-09T16:19:56.286Z,10.84
2022-10-09T16:22:24.200Z,11.19
2022-10-09T16:24:52.094Z,10.91
2022-10-09T16:27:21.317Z,10.77
2022-10-09T16:29:49.227Z,10.84
2022-10-09T16:32:17.177Z,10.58
2022-10-09T16:34:44.969Z,11.01
2022-10-09T16:37:12.750Z,10.65
2022-10-09T16:39:40.731Z,10.58
2022-10-09T16:42:08.611Z,10.34
2022-10-09T16:44:37.787Z,10.05
2022-10-09T16:47:05.691Z,10.98
2022-10-09T16:49:33.570Z,10.39
2022-10-09T16:52:01.910Z,10.25
2022-10-09T16:54:29.697Z,10.64
2022-10-09T16:56:58.254Z,10.55
2022-10-09T16:59:26.156Z,10.29
2022-10-09T17:01:57.152Z,10.35
2022-10-09T17:04:25.062Z,10.65
2022-10-09T17:06:53.534Z,10.48
2022-10-09T17:09:21.646Z,10.09
2022-10-09T17:11:49.812Z,10.38
2022-10-09T17:14:18.159Z,9.87
2022-10-09T17:16:46.030Z,9.88
2022-10-09T17:19:16.047Z,9.75
2022-10-09T17:21:44.553Z,9.22
2022-10-09T17:24:14.674Z,9.87
2022-10-09T17:26:42.923Z,10.24
2022-10-09T17:29:11.278Z,9.84
2022-10-09T17:31:39.127Z,9.75
2022-10-09T17:34:07.776Z,9.82
2022-10-09T17:36:38.687Z,10.01
2022-10-09T17:39:09.769Z,9.99
2022-10-09T17:41:37.971Z,9.86
2022-10-09T17:44:05.956Z,9.85
2022-10-09T17:46:34.151Z,9.48
2022-10-09T17:49:02.124Z,9.52
2022-10-09T17:51:31.956Z,9.89
2022-10-09T17:54:05.874Z,9.93
2022-10-09T17:56:36.132Z,9.09
2022-10-09T17:59:04.905Z,9.01
2022-10-09T18:01:33.184Z,9.83
2022-10-09T18:04:01.458Z,9.69
2022-10-09T18:06:33.071Z,9.12
2022-10-09T18:09:02.859Z,9.43
2022-10-09T18:11:31.212Z,8.38
2022-10-09T18:13:59.071Z,9.01
2022-10-09T18:16:38.464Z,8.68
2022-10-09T18:19:11.272Z,8.68
2022-10-09T18:21:40.258Z,9.18
2022-10-09T18:24:09.541Z,9.01
2022-10-09T18:26:37.695Z,8.71
2022-10-09T18:29:08.062Z,8.79
2022-10-09T18:31:36.932Z,8.86
2022-10-09T18:34:04.796Z,8.17
2022-10-09T18:36:34.223Z,8.41
2022-10-09T18:39:04.849Z,8.87
2022-10-09T18:41:34.240Z,7.66
2022-10-09T18:44:02.991Z,8.85
2022-10-09T18:46:36.948Z,8.60
2022-10-09T18:49:09.492Z,8.64
2022-10-09T18:51:40.139Z,7.67
2022-10-09T18:54:08.815Z,8.50
2022-10-09T18:56:39.048Z,8.39
2022-10-09T18:59:09.851Z,8.58
2022-10-09T19:01:37.746Z,8.58
2022-10-09T19:04:06.123Z,8.56
2022-10-09T19:06:33.892Z,8.26
2022-10-09T19:09:01.665Z,8.46
2022-10-09T19:11:29.982Z,7.47
2022-10-09T19:14:00.779Z,7.92
2022-10-09T19:16:29.315Z,7.76
2022-10-09T19:18:57.228Z,7.57
2022-10-09T19:21:25.432Z,7.61
2022-10-09T19:23:54.808Z,8.12
2022-10-09T19:26:23.140Z,7.88
2022-10-09T19:28:50.987Z,7.98
2022-10-09T19:31:20.263Z,8.13
2022-10-09T19:33:48.530Z,6.96
2022-10-09T19:36:16.510Z,8.09
2022-10-09T19:38:45.035Z,8.06
2022-10-09T19:41:14.737Z,7.76
2022-10-09T19:43:42.837Z,7.89
2022-10-09T19:46:14.067Z,7.59
2022-10-09T19:48:43.271Z,7.35
2022-10-09T19:51:12.541Z,7.79
2022-10-09T19:53:40.762Z,7.82
2022-10-09T19:56:11.426Z,7.23
2022-10-09T19:58:40.828Z,7.00
2022-10-09T20:01:09.117Z,7.51
2022-10-09T20:03:37.984Z,7.41
2022-10-09T20:06:08.564Z,7.50
2022-10-09T20:08:37.137Z,7.69
2022-10-09T20:11:06.606Z,7.91
2022-10-09T20:13:36.113Z,7.89
2022-10-09T20:16:18.449Z,7.87
